Time;durP1;ratioP1;P1;durP2;ratioP2;P2;SDS_P1;SDS_P2;PMS_P1;PMS_P2;Temp;Humidity;BMP_temperature;BMP_pressure;BME280_temperature;BME280_humidity;BME280_pressure;Samples;Min_cycle;Max_cycle;Signal;HPM_P1;HPM_P2
2022/10/02 00:01:45;;;;;;;17.70;4.73;;;;;;;11.32;100.00;101030.53;4988106;28;20271;-78
2022/10/02 00:04:15;;;;;;;19.07;4.60;;;;;;;11.28;100.00;101021.94;4990553;28;20656;-77
2022/10/02 00:06:48;;;;;;;23.30;5.37;;;;;;;11.27;100.00;101025.34;4971890;28;20216;-78
2022/10/02 00:09:30;;;;;;;16.93;3.90;;;;;;;11.23;100.00;101028.66;4990270;28;20271;-77
2022/10/02 00:11:58;;;;;;;15.23;4.17;;;;;;;11.22;100.00;101032.06;4973847;28;20191;-77
2022/10/02 00:14:30;;;;;;;17.47;4.27;;;;;;;11.18;100.00;101026.84;4993018;28;20192;-78
2022/10/02 00:16:58;;;;;;;14.93;3.70;;;;;;;11.18;100.00;101031.97;4990531;28;20686;-77
2022/10/02 00:19:24;;;;;;;15.90;4.07;;;;;;;11.17;100.00;101035.38;4976800;28;20219;-77
2022/10/02 00:21:59;;;;;;;18.27;3.77;;;;;;;11.19;100.00;101037.13;4992161;28;20222;-78
2022/10/02 00:25:19;;;;;;;19.03;3.70;;;;;;;11.22;100.00;101032.06;4995453;28;20196;-78
2022/10/02 00:28:01;;;;;;;18.20;4.27;;;;;;;11.23;100.00;101035.47;4933464;29;20212;-78
2022/10/02 00:30:31;;;;;;;21.53;4.60;;;;;;;11.20;100.00;101036.28;4990596;28;20684;-77
2022/10/02 00:33:22;;;;;;;16.53;4.03;;;;;;;11.18;100.00;101032.84;4991707;28;20278;-77
2022/10/02 00:36:15;;;;;;;15.43;3.37;;;;;;;11.18;100.00;101043.09;4988770;28;20230;-78
2022/10/02 00:38:54;;;;;;;13.50;3.40;;;;;;;11.21;100.00;101045.72;4976999;28;20759;-78
2022/10/02 00:41:57;;;;;;;13.57;3.97;;;;;;;11.21;100.00;101038.03;4989559;28;20669;-79
2022/10/02 00:44:34;;;;;;;16.37;4.07;;;;;;;11.17;100.00;101040.50;4990062;28;20187;-78
2022/10/02 00:47:30;;;;;;;15.97;3.50;;;;;;;11.16;100.00;101042.19;4991258;28;20262;-78
2022/10/02 00:50:20;;;;;;;12.47;3.20;;;;;;;11.13;100.00;101041.25;4990404;28;20227;-77
2022/10/02 00:53:21;;;;;;;11.00;3.47;;;;;;;11.24;100.00;101034.66;4990269;28;20184;-78
2022/10/02 00:55:55;;;;;;;16.43;3.33;;;;;;;11.19;100.00;101036.25;4988281;28;20219;-77
2022/10/02 00:59:03;;;;;;;12.97;3.87;;;;;;;11.18;100.00;101043.09;4990064;28;20208;-77
2022/10/02 01:01:40;;;;;;;15.13;3.33;;;;;;;11.17;100.00;101043.94;4988664;28;20211;-79
2022/10/02 01:04:12;;;;;;;17.13;3.50;;;;;;;11.21;100.00;101043.16;5002567;28;20267;-78
2022/10/02 01:06:38;;;;;;;13.73;3.17;;;;;;;11.28;100.00;101046.69;4992772;28;20243;-77
2022/10/02 01:09:04;;;;;;;14.53;3.40;;;;;;;11.24;100.00;101045.78;4992330;28;20203;-77
2022/10/02 01:11:32;;;;;;;11.10;3.40;;;;;;;11.26;100.00;101050.94;4992966;28;20286;-77
2022/10/02 01:13:57;;;;;;;12.83;3.63;;;;;;;11.25;100.00;101049.22;4990220;28;20196;-77
2022/10/02 01:16:23;;;;;;;15.07;3.60;;;;;;;11.29;100.00;101038.19;4989593;28;20566;-77
2022/10/02 01:18:49;;;;;;;14.73;3.77;;;;;;;11.28;100.00;101046.69;4994757;28;20183;-78
2022/10/02 01:21:44;;;;;;;12.00;2.93;;;;;;;11.23;100.00;101059.44;4990883;28;20195;-78
2022/10/02 01:24:31;;;;;;;13.80;2.83;;;;;;;11.26;100.00;101059.50;4980732;28;20570;-77
2022/10/02 01:26:56;;;;;;;12.77;2.97;;;;;;;11.31;100.00;101057.00;4986754;28;20249;-78
2022/10/02 01:29:21;;;;;;;14.10;3.00;;;;;;;11.30;100.00;101063.81;4989482;28;20199;-77
2022/10/02 01:31:47;;;;;;;19.23;3.67;;;;;;;11.27;100.00;101063.78;4989708;28;20203;-77
2022/10/02 01:34:13;;;;;;;13.00;3.07;;;;;;;11.29;100.00;101063.81;4988794;28;20258;-77
2022/10/02 01:36:39;;;;;;;13.20;2.93;;;;;;;11.29;100.00;101059.53;5000828;28;20232;-78
2022/10/02 01:39:04;;;;;;;15.80;3.73;;;;;;;11.27;100.00;101066.34;4979712;28;20195;-78
2022/10/02 01:41:31;;;;;;;17.27;3.83;;;;;;;11.29;100.00;101071.50;4992876;28;20215;-77
2022/10/02 01:44:01;;;;;;;12.77;3.33;;;;;;;11.28;100.00;101067.19;4988547;28;20274;-78
2022/10/02 01:46:49;;;;;;;14.77;3.03;;;;;;;11.30;100.00;101080.94;4979267;28;20223;-77
2022/10/02 01:49:33;;;;;;;9.63;3.07;;;;;;;11.26;100.00;101069.75;4986237;28;20289;-78
2022/10/02 01:52:08;;;;;;;11.27;3.27;;;;;;;11.24;100.00;101080.81;4989664;28;20631;-77
2022/10/02 01:54:45;;;;;;;15.23;3.67;;;;;;;11.23;100.00;101094.44;5002134;28;20201;-78
2022/10/02 01:57:36;;;;;;;13.37;3.43;;;;;;;11.21;100.00;101111.50;4991749;28;20198;-77
2022/10/02 02:00:09;;;;;;;11.90;2.93;;;;;;;11.22;100.00;101126.91;5005718;22;20628;-71
2022/10/02 02:02:56;;;;;;;12.63;2.67;;;;;;;11.30;100.00;101135.59;5000622;28;20266;-69
2022/10/02 02:05:37;;;;;;;16.10;3.13;;;;;;;11.36;100.00;101146.00;4992283;28;20198;-72
2022/10/02 02:08:13;;;;;;;13.60;3.00;;;;;;;11.39;100.00;101155.47;4994058;28;20242;-72
2022/10/02 02:11:09;;;;;;;14.60;3.30;;;;;;;11.42;100.00;101155.50;4995650;28;20306;-71
2022/10/02 02:14:01;;;;;;;10.93;2.63;;;;;;;11.43;100.00;101157.25;5003762;28;20563;-68
2022/10/02 02:16:51;;;;;;;11.00;3.20;;;;;;;11.43;100.00;101152.97;4993470;28;20216;-69
2022/10/02 02:19:26;;;;;;;11.13;2.53;;;;;;;11.45;100.00;101155.59;4996253;28;20684;-71
2022/10/02 02:21:59;;;;;;;13.30;2.80;;;;;;;11.46;100.00;101155.63;4995517;28;20195;-71
2022/10/02 02:24:33;;;;;;;13.60;3.77;;;;;;;11.48;100.00;101155.66;5000101;28;20187;-72
2022/10/02 02:27:01;;;;;;;9.97;2.73;;;;;;;11.50;100.00;101142.03;4993755;28;20651;-72
2022/10/02 02:29:31;;;;;;;10.03;2.70;;;;;;;11.51;100.00;101133.50;4987872;28;20212;-69
2022/10/02 02:31:59;;;;;;;11.00;2.67;;;;;;;11.51;100.00;101127.50;5002994;28;20262;-69
2022/10/02 02:34:32;;;;;;;9.70;2.93;;;;;;;11.49;100.00;101134.31;4994529;28;20548;-71
2022/10/02 02:37:03;;;;;;;14.87;2.60;;;;;;;11.51;100.00;101133.50;4998815;28;20198;-69
2022/10/02 02:39:54;;;;;;;11.93;2.73;;;;;;;11.53;100.00;101138.66;4993320;28;20609;-69
2022/10/02 02:42:24;;;;;;;11.27;2.97;;;;;;;11.54;100.00;101136.13;4997984;28;20257;-71
2022/10/02 02:44:59;;;;;;;13.23;3.23;;;;;;;11.53;100.00;101141.22;5000004;28;20199;-70
2022/10/02 02:47:44;;;;;;;8.23;2.20;;;;;;;11.56;100.00;101146.44;4987079;28;20794;-69
2022/10/02 02:50:17;;;;;;;9.73;2.70;;;;;;;11.57;100.00;101137.88;4997732;28;20258;-69
2022/10/02 02:52:53;;;;;;;8.23;2.80;;;;;;;11.57;100.00;101136.16;5001084;28;20266;-69
2022/10/02 02:55:29;;;;;;;11.77;3.03;;;;;;;11.59;100.00;101139.69;4997439;28;20215;-71
2022/10/02 02:58:07;;;;;;;7.77;2.70;;;;;;;11.56;100.00;101137.00;4996096;28;20193;-68
2022/10/02 03:00:33;;;;;;;11.43;2.70;;;;;;;11.54;100.00;101137.81;4980609;28;20233;-69
2022/10/02 03:02:59;;;;;;;12.97;3.53;;;;;;;11.53;100.00;101128.41;5001472;28;20188;-69
2022/10/02 03:05:26;;;;;;;12.63;3.80;;;;;;;11.49;100.00;101118.91;4993622;28;20220;-71
2022/10/02 03:08:00;;;;;;;14.10;4.10;;;;;;;11.43;100.00;101132.47;4993293;28;20223;-71
2022/10/02 03:10:47;;;;;;;18.90;4.33;;;;;;;11.35;100.00;101123.78;4997185;28;20206;-69
2022/10/02 03:13:25;;;;;;;12.50;4.53;;;;;;;11.29;100.00;101130.47;4997829;28;20600;-71
2022/10/02 03:16:10;;;;;;;9.73;4.07;;;;;;;11.23;100.00;101133.75;5000901;28;20190;-72
2022/10/02 03:18:49;;;;;;;15.07;3.80;;;;;;;11.18;100.00;101126.78;4991784;28;20194;-71
2022/10/02 03:21:21;;;;;;;10.07;3.30;;;;;;;11.16;100.00;101128.47;5002110;28;20182;-71
2022/10/02 03:24:02;;;;;;;10.80;3.30;;;;;;;11.16;100.00;101131.88;4991565;28;20274;-71
2022/10/02 03:26:57;;;;;;;8.73;2.73;;;;;;;11.18;100.00;101132.81;4994941;28;20195;-71
2022/10/02 03:29:33;;;;;;;9.87;2.77;;;;;;;11.16;100.00;101124.19;5001965;28;20209;-71
2022/10/02 03:32:00;;;;;;;10.30;3.10;;;;;;;11.14;100.00;101123.31;4996760;28;20191;-71
2022/10/02 03:34:26;;;;;;;11.07;3.10;;;;;;;11.13;100.00;101125.84;4991887;28;20628;-71
2022/10/02 03:36:52;;;;;;;7.67;2.83;;;;;;;11.12;100.00;101119.88;4993585;28;20191;-71
2022/10/02 03:39:18;;;;;;;10.90;3.40;;;;;;;11.11;100.00;101120.66;5001308;28;20211;-71
2022/10/02 03:41:44;;;;;;;10.07;3.03;;;;;;;11.11;100.00;101124.94;4996766;28;20233;-72
2022/10/02 03:44:10;;;;;;;9.60;2.90;;;;;;;11.10;100.00;101129.19;5001321;28;20270;-71
2022/10/02 03:46:35;;;;;;;8.80;3.10;;;;;;;11.10;100.00;101124.06;4994139;28;20579;-71
2022/10/02 03:49:00;;;;;;;7.60;2.37;;;;;;;11.08;100.00;101122.31;4998523;28;20780;-71
2022/10/02 03:51:26;;;;;;;8.77;2.70;;;;;;;11.07;100.00;101126.56;4997647;28;20598;-71
2022/10/02 03:53:51;;;;;;;11.90;2.67;;;;;;;11.07;100.00;101129.13;4997626;28;20188;-71
2022/10/02 03:56:45;;;;;;;8.83;2.67;;;;;;;11.09;100.00;101135.16;4998044;28;20210;-71
2022/10/02 03:59:16;;;;;;;5.50;2.43;;;;;;;11.09;100.00;101136.84;4987718;28;20271;-71
2022/10/02 04:01:47;;;;;;;14.37;3.23;;;;;;;11.06;100.00;101127.41;4999118;28;20196;-71
2022/10/02 04:04:17;;;;;;;8.90;3.00;;;;;;;11.08;100.00;101130.00;4997680;28;20684;-71
2022/10/02 04:06:50;;;;;;;8.53;3.03;;;;;;;11.07;100.00;101128.28;4993691;28;20191;-71
2022/10/02 04:09:29;;;;;;;8.43;3.10;;;;;;;11.05;100.00;101143.63;4997255;28;20226;-71
2022/10/02 04:12:05;;;;;;;11.20;3.13;;;;;;;10.98;100.00;101140.88;4998764;28;20187;-71
2022/10/02 04:14:46;;;;;;;11.33;2.83;;;;;;;10.96;100.00;101145.13;5000517;28;20194;-71
2022/10/02 04:17:19;;;;;;;10.43;3.50;;;;;;;10.92;100.00;101145.88;4996563;28;20179;-71
2022/10/02 04:19:51;;;;;;;9.00;3.20;;;;;;;10.88;100.00;101139.81;4989252;28;20708;-71
2022/10/02 04:22:34;;;;;;;9.50;3.03;;;;;;;10.84;100.00;101148.28;4996225;28;20191;-70
2022/10/02 04:25:13;;;;;;;8.27;3.73;;;;;;;10.90;100.00;101150.97;4997698;28;20226;-71
2022/10/02 04:27:43;;;;;;;11.10;3.50;;;;;;;10.87;100.00;101152.59;5000342;28;20207;-71
2022/10/02 04:30:08;;;;;;;13.50;4.43;;;;;;;10.82;100.00;101157.59;4993318;28;20242;-71
2022/10/02 04:32:35;;;;;;;8.60;3.63;;;;;;;10.79;100.00;101156.66;4988225;28;20218;-71
2022/10/02 04:35:32;;;;;;;17.80;4.20;;;;;;;10.72;100.00;101150.53;4969713;28;20192;-70
2022/10/02 04:38:31;;;;;;;10.73;3.13;;;;;;;10.72;100.00;101150.53;4985227;28;20187;-71
2022/10/02 04:41:24;;;;;;;9.57;3.30;;;;;;;10.65;100.00;101158.88;4997979;28;20246;-71
2022/10/02 04:44:02;;;;;;;12.73;3.53;;;;;;;10.61;100.00;101151.13;4989511;28;20888;-71
2022/10/02 04:46:34;;;;;;;12.33;3.87;;;;;;;10.61;100.00;101154.56;4996085;28;20211;-72
2022/10/02 04:49:18;;;;;;;11.53;3.73;;;;;;;10.58;100.00;101156.16;4999084;28;20220;-71
2022/10/02 04:52:02;;;;;;;22.73;4.03;;;;;;;10.55;100.00;101156.94;4997478;28;20193;-72
2022/10/02 04:54:47;;;;;;;17.63;4.60;;;;;;;10.53;100.00;101155.16;4989472;28;20183;-70
2022/10/02 04:57:33;;;;;;;9.00;4.63;;;;;;;10.51;100.00;101155.13;4969641;28;20183;-70
2022/10/02 04:59:59;;;;;;;10.03;3.90;;;;;;;10.51;100.00;101144.03;4960635;28;20330;-70
2022/10/02 05:02:31;;;;;;;15.33;4.47;;;;;;;10.50;100.00;101145.72;4961222;28;20197;-70
2022/10/02 05:05:13;;;;;;;13.60;4.07;;;;;;;10.48;100.00;101149.97;4972364;28;20196;-71
2022/10/02 05:07:48;;;;;;;12.73;4.20;;;;;;;10.51;100.00;101165.38;4996144;28;20419;-71
2022/10/02 05:10:28;;;;;;;9.60;3.73;;;;;;;10.51;100.00;101165.38;4998138;28;20272;-70
2022/10/02 05:13:00;;;;;;;17.00;4.70;;;;;;;10.49;100.00;101166.16;4996589;28;20203;-71
2022/10/02 05:15:25;;;;;;;9.43;4.30;;;;;;;10.51;100.00;101161.97;5002068;28;20314;-72
2022/10/02 05:18:26;;;;;;;14.63;4.07;;;;;;;10.53;100.00;101170.53;4991103;28;20183;-71
2022/10/02 05:21:06;;;;;;;9.53;3.97;;;;;;;10.52;100.00;101162.00;4999792;28;20302;-71
2022/10/02 05:24:06;;;;;;;15.97;5.00;;;;;;;10.53;100.00;101163.72;4986481;28;20549;-71
2022/10/02 05:26:32;;;;;;;12.10;4.63;;;;;;;10.57;100.00;101157.88;4987382;28;20200;-70
2022/10/02 05:29:35;;;;;;;15.97;5.33;;;;;;;10.62;100.00;101157.97;4995967;28;20633;-71
2022/10/02 05:32:04;;;;;;;12.63;5.03;;;;;;;10.63;100.00;101157.13;4988693;28;20321;-71
2022/10/02 05:34:45;;;;;;;15.47;5.73;;;;;;;10.62;100.00;101158.84;4994096;28;20223;-71
2022/10/02 05:37:29;;;;;;;11.00;5.60;;;;;;;10.63;100.00;101157.13;5008257;28;20183;-71
2022/10/02 05:40:15;;;;;;;12.47;5.00;;;;;;;10.60;100.00;101163.03;4994984;28;20346;-70
2022/10/02 05:42:51;;;;;;;14.53;5.37;;;;;;;10.62;100.00;101168.19;4995829;28;20183;-70
2022/10/02 05:45:32;;;;;;;16.17;5.90;;;;;;;10.61;100.00;101161.34;4991513;28;20554;-71
2022/10/02 05:48:13;;;;;;;15.60;7.07;;;;;;;10.69;100.00;101170.94;4997486;28;20211;-71
2022/10/02 05:50:40;;;;;;;15.10;6.70;;;;;;;10.72;100.00;101171.03;4993933;28;20222;-71
2022/10/02 05:53:21;;;;;;;16.73;6.63;;;;;;;10.82;100.00;101179.78;5008595;28;20188;-70
2022/10/02 05:55:50;;;;;;;16.20;7.00;;;;;;;10.94;100.00;101169.81;4992214;28;20191;-70
2022/10/02 05:58:40;;;;;;;20.33;7.83;;;;;;;11.05;100.00;101174.38;5000183;28;20627;-71
2022/10/02 06:01:11;;;;;;;15.40;7.23;;;;;;;11.12;100.00;101183.06;4996189;28;20200;-71
2022/10/02 06:03:48;;;;;;;14.20;6.27;;;;;;;11.16;100.00;101184.88;4994876;28;20187;-71
2022/10/02 06:06:23;;;;;;;15.20;6.93;;;;;;;11.19;100.00;101188.34;4998962;28;20195;-71
2022/10/02 06:09:13;;;;;;;15.57;6.40;;;;;;;11.26;100.00;101191.91;5001530;28;20218;-71
2022/10/02 06:11:42;;;;;;;14.10;6.33;;;;;;;11.34;100.00;101191.25;4997370;28;20592;-70
2022/10/02 06:14:19;;;;;;;14.33;6.33;;;;;;;11.43;100.00;101194.00;4996372;28;20211;-70
2022/10/02 06:16:58;;;;;;;20.53;6.93;;;;;;;11.57;100.00;101202.84;4997437;28;20270;-71
2022/10/02 06:19:31;;;;;;;17.03;7.10;;;;;;;11.60;100.00;101210.66;4999453;28;20883;-71
2022/10/02 06:22:12;;;;;;;18.93;7.90;;;;;;;11.59;100.00;101229.47;4991931;28;20202;-71
2022/10/02 06:24:42;;;;;;;17.63;7.47;;;;;;;11.64;100.00;101217.59;4997335;28;20680;-70
2022/10/02 06:27:17;;;;;;;16.87;7.67;;;;;;;11.66;100.00;101226.16;4995991;28;20199;-70
2022/10/02 06:29:53;;;;;;;16.20;7.33;;;;;;;11.63;100.00;101215.00;5001663;28;20269;-71
2022/10/02 06:32:43;;;;;;;16.53;7.40;;;;;;;11.65;100.00;101228.69;4992497;28;20197;-71
2022/10/02 06:35:14;;;;;;;15.93;7.00;;;;;;;11.64;100.00;101230.41;4998199;28;20190;-71
2022/10/02 06:38:01;;;;;;;14.67;7.20;;;;;;;11.64;100.00;101234.66;4999299;28;20663;-71
2022/10/02 06:40:36;;;;;;;13.43;6.43;;;;;;;11.63;100.00;101227.81;5000875;28;20218;-70
2022/10/02 06:43:30;;;;;;;14.67;5.03;;;;;;;11.60;100.00;101227.72;4998149;28;20199;-71
2022/10/02 06:46:14;;;;;;;14.93;4.43;;;;;;;11.56;100.00;101203.69;4999756;28;20275;-71
2022/10/02 06:49:13;;;;;;;10.60;3.80;;;;;;;11.54;100.00;101197.69;4996538;28;20302;-71
2022/10/02 06:51:48;;;;;;;4.37;2.40;;;;;;;11.51;100.00;101202.75;4996735;28;20191;-71
2022/10/02 06:54:28;;;;;;;10.93;2.77;;;;;;;11.51;100.00;101195.03;4996947;28;20207;-71
2022/10/02 06:56:59;;;;;;;4.93;2.47;;;;;;;11.53;100.00;101195.09;5000223;28;20273;-70
2022/10/02 07:00:00;;;;;;;6.70;2.50;;;;;;;11.57;100.00;101189.19;5004146;28;20215;-71
2022/10/02 07:02:35;;;;;;;8.20;2.33;;;;;;;11.61;100.00;101184.16;4999177;28;20195;-71
2022/10/02 07:05:23;;;;;;;5.47;2.17;;;;;;;11.62;100.00;101192.75;4999976;28;20270;-71
2022/10/02 07:08:23;;;;;;;5.80;2.37;;;;;;;11.67;100.00;101198.84;5000301;28;20238;-71
2022/10/02 07:10:54;;;;;;;4.80;2.00;;;;;;;11.71;100.00;101211.72;5008213;28;20214;-71
2022/10/02 07:13:38;;;;;;;4.57;2.20;;;;;;;11.73;100.00;101210.09;5000189;28;20650;-71
2022/10/02 07:16:31;;;;;;;5.87;2.67;;;;;;;11.77;100.00;101218.69;4996755;28;20190;-71
2022/10/02 07:19:18;;;;;;;5.93;2.70;;;;;;;11.79;100.00;101215.34;4989883;28;20199;-71
2022/10/02 07:21:49;;;;;;;8.23;2.90;;;;;;;11.86;100.00;101216.31;5005431;28;20207;-71
2022/10/02 07:24:24;;;;;;;7.93;3.17;;;;;;;12.00;100.00;101223.47;4990541;28;20656;-71
2022/10/02 07:27:17;;;;;;;6.63;3.60;;;;;;;12.01;100.00;101229.44;5000049;28;20183;-71
2022/10/02 07:29:51;;;;;;;6.33;3.67;;;;;;;12.01;100.00;101227.75;4994527;28;20211;-71
2022/10/02 07:32:24;;;;;;;9.00;4.23;;;;;;;12.12;100.00;101235.69;4994152;28;20191;-71
2022/10/02 07:34:55;;;;;;;8.13;4.77;;;;;;;12.60;100.00;101255.44;4972024;28;20206;-70
2022/10/02 07:37:33;;;;;;;9.27;5.33;;;;;;;13.02;100.00;101255.31;4994269;28;20191;-71
2022/10/02 07:40:37;;;;;;;5.70;4.27;;;;;;;13.32;100.00;101255.78;4995237;28;20227;-71
2022/10/02 07:43:08;;;;;;;7.87;4.60;;;;;;;13.74;98.62;101260.66;5000391;28;20196;-71
2022/10/02 07:45:45;;;;;;;8.00;4.50;;;;;;;14.00;97.77;101261.84;5001528;28;20242;-71
2022/10/02 07:48:40;;;;;;;11.57;5.10;;;;;;;14.30;96.28;101255.38;5015722;28;20214;-71
2022/10/02 07:54:14;;;;;;;9.40;4.60;;;;;;;14.58;93.97;101262.53;5004112;28;20230;-72
2022/10/02 07:56:42;;;;;;;6.03;3.63;;;;;;;15.16;92.27;101263.91;4990457;28;20266;-71
2022/10/02 07:59:14;;;;;;;7.77;3.87;;;;;;;15.52;90.10;101265.06;5017027;28;20230;-70
2022/10/02 08:01:42;;;;;;;9.17;3.47;;;;;;;15.15;89.57;101281.09;5002096;28;20270;-71
2022/10/02 08:04:24;;;;;;;10.23;3.70;;;;;;;14.77;90.57;101279.03;4995091;28;20199;-71
2022/10/02 08:06:56;;;;;;;6.57;2.80;;;;;;;14.32;90.83;101282.00;5005172;28;20195;-71
2022/10/02 08:09:38;;;;;;;7.67;3.30;;;;;;;14.15;92.92;101285.22;4992483;28;20258;-71
2022/10/02 08:12:16;;;;;;;9.73;3.60;;;;;;;14.04;93.84;101287.66;4994670;28;20211;-71
2022/10/02 08:14:45;;;;;;;9.10;3.60;;;;;;;13.86;94.84;101281.41;4999797;28;20187;-70
2022/10/02 08:17:34;;;;;;;10.17;3.63;;;;;;;13.66;95.63;101287.97;5001550;28;20243;-72
2022/10/02 08:20:20;;;;;;;11.33;3.53;;;;;;;13.61;95.98;101280.22;4999954;28;20231;-71
2022/10/02 08:22:51;;;;;;;8.00;3.90;;;;;;;13.59;96.43;101292.22;4991641;28;20196;-71
2022/10/02 08:25:29;;;;;;;11.03;4.07;;;;;;;13.57;96.41;101287.84;5003771;28;20182;-71
2022/10/02 08:28:03;;;;;;;9.40;3.50;;;;;;;13.52;96.73;101286.94;4997182;28;20233;-71
2022/10/02 08:30:29;;;;;;;7.30;3.30;;;;;;;13.70;96.62;101287.19;5002149;28;20211;-71
2022/10/02 08:32:54;;;;;;;11.67;3.57;;;;;;;13.95;96.51;101287.53;4994838;28;20680;-71
2022/10/02 08:35:21;;;;;;;13.20;3.90;;;;;;;13.93;95.99;101288.34;4996407;28;20221;-71
2022/10/02 08:38:11;;;;;;;8.47;2.80;;;;;;;14.16;95.46;101292.09;5000211;28;20677;-72
2022/10/02 08:41:17;;;;;;;9.40;3.57;;;;;;;14.49;93.20;101301.09;4996578;28;20215;-72
2022/10/02 08:44:05;;;;;;;10.73;3.07;;;;;;;15.21;91.77;101295.78;4935601;29;20251;-71
2022/10/02 08:46:58;;;;;;;6.53;2.10;;;;;;;16.40;86.45;101298.22;4997576;28;20249;-72
2022/10/02 08:49:42;;;;;;;4.87;1.80;;;;;;;16.26;84.51;101301.59;5004059;28;20211;-72
2022/10/02 08:52:32;;;;;;;6.20;1.90;;;;;;;16.85;83.48;101297.47;5003681;28;20187;-71
2022/10/02 08:55:14;;;;;;;3.92;1.40;;;;;;;17.17;81.48;101300.94;4994306;28;20191;-72
2022/10/02 08:57:51;;;;;;;4.57;2.00;;;;;;;17.66;79.73;101295.75;4997364;28;20278;-72
2022/10/02 09:00:29;;;;;;;3.55;1.45;;;;;;;18.72;76.08;101293.56;4989073;28;20223;-72
2022/10/02 09:03:17;;;;;;;4.63;1.65;;;;;;;17.99;77.07;101295.63;4993875;28;20192;-72
2022/10/02 09:06:04;;;;;;;3.57;1.60;;;;;;;17.18;78.70;101310.44;4990295;28;20195;-72
2022/10/02 09:08:32;;;;;;;6.80;2.00;;;;;;;16.85;81.70;101310.41;4993092;28;20207;-73
2022/10/02 09:11:09;;;;;;;5.70;2.10;;;;;;;17.06;81.19;101319.06;4995890;28;20294;-72
2022/10/02 09:14:09;;;;;;;7.03;2.30;;;;;;;16.27;85.14;101324.88;4994078;28;20187;-72
2022/10/02 09:16:56;;;;;;;11.00;2.40;;;;;;;15.90;87.41;101320.38;5003406;28;20203;-71
2022/10/02 09:19:53;;;;;;;10.57;2.47;;;;;;;15.61;89.97;101321.06;4999056;28;20210;-71
2022/10/02 09:22:47;;;;;;;9.83;2.70;;;;;;;15.43;90.59;101320.94;4992968;28;20196;-71
2022/10/02 09:25:25;;;;;;;9.43;2.80;;;;;;;15.43;91.09;101323.50;5013629;28;20191;-71
2022/10/02 09:28:18;;;;;;;7.13;2.23;;;;;;;15.27;90.69;101326.78;4988702;28;20810;-71
2022/10/02 09:31:13;;;;;;;7.73;2.90;;;;;;;15.13;91.70;101324.09;4998076;28;20692;-71
2022/10/02 09:33:51;;;;;;;7.70;2.40;;;;;;;15.04;92.80;101334.34;4994600;28;20270;-71
2022/10/02 09:36:29;;;;;;;7.37;2.40;;;;;;;14.90;93.09;101333.34;4991983;28;20203;-71
2022/10/02 09:39:23;;;;;;;14.23;3.33;;;;;;;14.82;94.04;101326.38;5002983;28;20184;-71
2022/10/02 09:42:17;;;;;;;11.30;2.97;;;;;;;14.63;94.04;101329.59;4996569;28;20222;-71
2022/10/02 09:45:06;;;;;;;7.20;2.60;;;;;;;14.50;94.45;101340.66;5014125;28;20191;-71
2022/10/02 09:47:52;;;;;;;12.83;3.13;;;;;;;14.47;94.30;101340.59;4990069;28;20572;-72
2022/10/02 09:50:26;;;;;;;12.63;3.67;;;;;;;14.20;96.35;101347.94;4995862;28;20696;-71
2022/10/02 09:53:20;;;;;;;10.77;3.27;;;;;;;14.19;96.48;101338.50;5002736;28;20269;-72
2022/10/02 09:56:16;;;;;;;10.07;3.57;;;;;;;14.11;97.22;101333.25;4992843;28;20640;-71
2022/10/02 09:58:56;;;;;;;8.17;2.40;;;;;;;14.07;96.47;101338.34;4984379;28;20223;-71
2022/10/02 10:01:44;;;;;;;6.93;2.20;;;;;;;14.03;95.86;101345.16;4983609;28;20200;-71
2022/10/02 10:04:18;;;;;;;5.03;1.40;;;;;;;13.86;95.34;101336.34;4981876;28;20641;-71
2022/10/02 10:06:52;;;;;;;4.97;1.43;;;;;;;13.66;92.72;101337.75;4982555;28;20322;-71
2022/10/02 10:09:43;;;;;;;5.00;1.47;;;;;;;13.51;91.72;101341.81;4999865;28;20217;-71
2022/10/02 10:12:30;;;;;;;6.67;1.47;;;;;;;13.48;92.51;101339.22;4987511;28;20235;-72
2022/10/02 10:15:01;;;;;;;2.23;0.93;;;;;;;13.44;91.41;101337.44;5001003;28;20187;-72
2022/10/02 10:17:38;;;;;;;3.53;1.07;;;;;;;13.50;91.48;101330.66;5002970;28;20198;-71
2022/10/02 10:20:35;;;;;;;4.87;1.50;;;;;;;13.64;92.56;101336.00;5011403;28;20215;-72
2022/10/02 10:23:27;;;;;;;5.53;1.70;;;;;;;13.68;93.24;101330.06;4997048;28;20180;-72
2022/10/02 10:26:13;;;;;;;4.87;1.63;;;;;;;13.71;93.16;101340.41;5001907;28;20575;-70
2022/10/02 10:29:08;;;;;;;5.90;1.77;;;;;;;13.88;92.60;101346.66;4996527;28;20247;-71
2022/10/02 10:32:05;;;;;;;7.47;1.83;;;;;;;17.84;79.50;101325.91;5008594;28;20190;-72
2022/10/02 10:34:53;;;;;;;4.30;1.53;;;;;;;18.20;73.75;101326.66;5000612;28;20191;-72
2022/10/02 10:40:45;;;;;;;5.55;1.65;;;;;;;20.77;63.72;101311.38;5006356;28;20213;-72
2022/10/02 10:43:51;;;;;;;6.38;1.58;;;;;;;20.81;64.07;101321.72;5001779;28;20187;-72
2022/10/02 10:46:25;;;;;;;6.68;1.83;;;;;;;22.23;58.60;101314.88;4993763;28;20183;-72
2022/10/02 10:49:16;;;;;;;5.35;1.70;;;;;;;21.43;63.00;101320.75;5002545;28;20683;-72
2022/10/02 10:51:52;;;;;;;5.63;2.10;;;;;;;23.90;55.78;101316.13;4992754;28;20198;-72
2022/10/02 10:54:27;;;;;;;7.70;1.83;;;;;;;28.70;42.09;101298.75;5017613;28;20237;-70
2022/10/02 10:57:03;;;;;;;5.25;1.90;;;;;;;28.88;41.23;101297.88;4996751;28;20318;-70
2022/10/02 11:00:10;;;;;;;4.97;1.88;;;;;;;30.53;37.18;101291.00;4996267;28;20303;-70
2022/10/02 11:02:57;;;;;;;3.95;1.90;;;;;;;29.95;38.66;101295.91;5003755;28;20290;-70
2022/10/02 11:06:02;;;;;;;6.75;2.33;;;;;;;31.55;36.65;101284.16;5003655;28;20236;-70
2022/10/02 11:09:05;;;;;;;6.05;2.50;;;;;;;32.43;34.08;101283.91;4971328;28;20754;-70
2022/10/02 11:11:45;;;;;;;5.47;2.30;;;;;;;33.33;31.81;101283.22;5007516;28;20202;-70
2022/10/02 11:14:27;;;;;;;6.13;1.95;;;;;;;33.85;32.72;101285.84;4996969;28;20787;-70
2022/10/02 11:17:17;;;;;;;6.22;2.25;;;;;;;33.92;31.08;101282.63;4999892;28;20214;-70
2022/10/02 11:20:13;;;;;;;3.72;1.70;;;;;;;34.08;30.45;101285.94;4998635;28;20221;-70
2022/10/02 11:23:05;;;;;;;6.60;2.38;;;;;;;34.91;29.94;101285.19;4994713;28;20184;-71
2022/10/02 11:25:53;;;;;;;6.63;2.08;;;;;;;34.47;29.90;101293.75;4990626;28;20227;-71
2022/10/02 11:28:39;;;;;;;7.32;1.98;;;;;;;35.36;30.03;101284.41;5003386;28;20207;-70
2022/10/02 11:31:16;;;;;;;5.80;2.22;;;;;;;34.89;29.31;101282.63;4995214;28;20756;-71
2022/10/02 11:34:12;;;;;;;4.88;1.95;;;;;;;35.57;28.00;101278.28;5001289;28;20214;-71
2022/10/02 11:36:56;;;;;;;7.85;2.38;;;;;;;35.81;28.43;101287.06;4995033;28;20198;-71
2022/10/02 11:39:35;;;;;;;5.10;2.10;;;;;;;35.71;28.54;101283.38;5004327;28;20581;-71
2022/10/02 11:42:35;;;;;;;5.45;2.10;;;;;;;34.27;29.54;101298.75;5000336;28;20570;-71
2022/10/02 11:45:38;;;;;;;7.57;2.53;;;;;;;35.43;28.24;101290.97;4993071;28;20200;-70
2022/10/02 11:48:22;;;;;;;6.57;2.30;;;;;;;31.42;33.15;101304.38;5003163;28;20206;-70
2022/10/02 11:51:12;;;;;;;6.55;2.28;;;;;;;34.11;29.06;101298.16;4998597;28;20619;-70
2022/10/02 11:53:51;;;;;;;7.30;2.30;;;;;;;34.82;28.87;101291.19;4997370;28;20196;-70
2022/10/02 11:56:59;;;;;;;7.20;2.42;;;;;;;36.32;26.48;101284.75;5003856;28;20191;-70
2022/10/02 11:59:50;;;;;;;7.88;2.28;;;;;;;29.71;35.24;101325.41;4996754;28;20310;-71
2022/10/02 12:02:33;;;;;;;5.28;2.10;;;;;;;27.64;39.80;101324.72;4998148;28;20230;-70
2022/10/02 12:05:43;;;;;;;6.18;2.15;;;;;;;29.92;36.30;101311.06;5002923;28;20199;-72
2022/10/02 12:08:41;;;;;;;8.48;2.00;;;;;;;26.45;41.80;101324.31;4970341;28;20752;-71
2022/10/02 12:11:32;;;;;;;8.18;2.35;;;;;;;30.80;34.54;101304.47;5003436;28;20225;-72
2022/10/02 12:14:18;;;;;;;4.88;1.95;;;;;;;33.19;29.54;101309.00;4989047;28;20643;-70
2022/10/02 12:16:51;;;;;;;4.85;1.75;;;;;;;31.34;32.03;101326.00;4990836;28;20225;-70
2022/10/02 12:19:26;;;;;;;5.72;2.08;;;;;;;32.52;30.51;101322.25;5001781;28;20202;-70
2022/10/02 12:28:10;;;;;;;5.75;2.10;;;;;;;34.32;29.00;101328.59;4999603;28;20215;-71
2022/10/02 12:30:51;;;;;;;5.95;2.53;;;;;;;33.34;28.80;101327.44;4995272;28;20211;-70